createdAt,value
2022-11-13T00:01:07.240Z,96.60
2022-11-13T00:02:09.031Z,96.40
2022-11-13T00:03:10.930Z,96.30
2022-11-13T00:04:12.709Z,96.20
2022-11-13T00:05:14.534Z,96.20
2022-11-13T00:06:17.783Z,96.20
2022-11-13T00:07:19.507Z,96.10
2022-11-13T00:08:21.270Z,96.10
2022-11-13T00:09:23.011Z,96.10
2022-11-13T00:10:24.739Z,96.30
2022-11-13T00:11:26.469Z,96.40
2022-11-13T00:12:29.657Z,96.30
2022-11-13T00:13:32.000Z,96.60
2022-11-13T00:14:33.805Z,96.80
2022-11-13T00:15:35.561Z,96.90
2022-11-13T00:16:37.266Z,96.90
2022-11-13T00:17:38.976Z,97.10
2022-11-13T00:18:41.007Z,97.30
2022-11-13T00:19:42.756Z,97.30
2022-11-13T00:20:44.522Z,97.20
2022-11-13T00:21:46.284Z,97.20
2022-11-13T00:22:48.004Z,97.20
2022-11-13T00:23:50.605Z,97.20
2022-11-13T00:24:52.306Z,97.10
2022-11-13T00:25:54.078Z,97.30
2022-11-13T00:26:55.801Z,97.20
2022-11-13T00:27:57.533Z,97.20
2022-11-13T00:29:02.319Z,97.10
2022-11-13T00:30:05.506Z,97.10
2022-11-13T00:31:08.180Z,97.20
2022-11-13T00:32:09.881Z,97.30
2022-11-13T00:33:11.897Z,97.20
2022-11-13T00:34:41.049Z,97.10
2022-11-13T00:35:35.414Z,97.10
2022-11-13T00:36:37.168Z,97.20
2022-11-13T00:37:38.909Z,97.10
2022-11-13T00:38:40.711Z,97.20
2022-11-13T00:39:42.419Z,97.30
2022-11-13T00:40:44.170Z,97.10
2022-11-13T00:41:45.919Z,97.40
2022-11-13T00:42:47.629Z,97.70
2022-11-13T00:43:49.403Z,98.00
2022-11-13T00:44:51.126Z,98.00
2022-11-13T00:45:53.836Z,98.00
2022-11-13T00:46:55.567Z,97.90
2022-11-13T00:47:57.277Z,97.90
2022-11-13T00:48:59.044Z,98.00
2022-11-13T00:50:00.802Z,98.10
2022-11-13T00:51:03.206Z,98.20
2022-11-13T00:52:05.021Z,98.10
2022-11-13T00:53:06.903Z,98.30
2022-11-13T00:54:08.631Z,98.20
2022-11-13T00:55:10.390Z,98.10
2022-11-13T00:56:12.158Z,98.10
2022-11-13T00:57:13.879Z,98.10
2022-11-13T00:58:15.928Z,98.00
2022-11-13T00:59:17.646Z,98.10
2022-11-13T01:00:19.527Z,98.00
2022-11-13T01:01:21.425Z,98.20
2022-11-13T01:02:23.281Z,98.30
2022-11-13T01:03:24.998Z,98.30
2022-11-13T01:04:28.768Z,98.30
2022-11-13T01:05:30.593Z,98.30
2022-11-13T01:06:32.353Z,98.30
2022-11-13T01:07:37.017Z,98.20
2022-11-13T01:08:38.767Z,98.20
2022-11-13T01:09:40.516Z,98.20
2022-11-13T01:10:53.006Z,98.20
2022-11-13T01:11:55.034Z,98.20
2022-11-13T01:12:56.745Z,98.30
2022-11-13T01:13:58.641Z,98.40
2022-11-13T01:15:00.473Z,98.40
2022-11-13T01:16:06.235Z,98.60
2022-11-13T01:17:08.009Z,98.60
2022-11-13T01:18:10.512Z,98.70
2022-11-13T01:19:12.245Z,98.70
2022-11-13T01:20:14.289Z,98.90
2022-11-13T01:21:19.092Z,98.90
2022-11-13T01:22:20.826Z,99.20
2022-11-13T01:23:22.536Z,99.20
2022-11-13T01:24:24.273Z,99.10
2022-11-13T01:25:27.243Z,99.00
2022-11-13T01:26:30.479Z,99.00
2022-11-13T01:27:32.241Z,99.10
2022-11-13T01:28:34.105Z,99.10
2022-11-13T01:29:37.680Z,99.00
2022-11-13T01:30:40.122Z,99.00
2022-11-13T01:31:41.862Z,99.00
2022-11-13T01:32:43.595Z,99.10
2022-11-13T01:33:46.860Z,99.40
2022-11-13T01:34:48.654Z,99.20
2022-11-13T01:35:50.422Z,99.30
2022-11-13T01:36:52.329Z,98.80
2022-11-13T01:37:54.048Z,98.90
2022-11-13T01:38:56.342Z,98.80
2022-11-13T01:39:58.085Z,98.80
2022-11-13T01:40:59.876Z,98.70
2022-11-13T01:42:01.725Z,98.70
2022-11-13T01:43:23.433Z,98.50
2022-11-13T01:44:25.176Z,98.90
2022-11-13T01:46:01.899Z,98.40
2022-11-13T01:47:03.916Z,98.50
2022-11-13T01:48:09.610Z,98.10
2022-11-13T01:49:11.294Z,97.90
2022-11-13T01:50:15.174Z,98.20
2022-11-13T01:51:24.464Z,98.00
2022-11-13T01:52:46.539Z,97.90
2022-11-13T01:53:48.748Z,97.90
2022-11-13T01:55:04.866Z,98.00
2022-11-13T01:56:07.514Z,97.70
2022-11-13T01:57:10.040Z,97.80
2022-11-13T01:58:13.015Z,97.70
2022-11-13T01:59:20.306Z,97.70
2022-11-13T02:00:22.120Z,97.60
2022-11-13T02:01:23.975Z,97.70
2022-11-13T02:02:26.037Z,97.50
2022-11-13T02:03:27.895Z,97.50
2022-11-13T02:04:30.620Z,97.60
2022-11-13T02:05:32.670Z,97.70
2022-11-13T02:06:44.038Z,97.90
2022-11-13T02:07:46.400Z,98.30
2022-11-13T02:08:49.842Z,98.00
2022-11-13T02:09:55.089Z,98.00
2022-11-13T02:10:57.101Z,97.90
2022-11-13T02:12:00.282Z,98.20
2022-11-13T02:13:02.138Z,98.30
2022-11-13T02:14:05.243Z,98.30
2022-11-13T02:15:08.102Z,98.30
2022-11-13T02:16:11.648Z,98.30
2022-11-13T02:17:18.161Z,98.30
2022-11-13T02:18:22.318Z,98.60
2022-11-13T02:19:32.922Z,98.70
2022-11-13T02:20:57.584Z,98.80
2022-11-13T02:22:24.077Z,98.90
2022-11-13T02:23:43.887Z,99.20
2022-11-13T02:24:50.949Z,99.30
2022-11-13T02:25:55.413Z,99.30
2022-11-13T02:27:01.137Z,99.50
2022-11-13T02:28:02.907Z,99.60
2022-11-13T02:29:04.670Z,99.70
2022-11-13T02:30:27.542Z,99.70
2022-11-13T02:31:29.510Z,99.70
2022-11-13T02:32:31.335Z,99.60
2022-11-13T02:33:33.755Z,99.70
2022-11-13T02:34:35.530Z,99.70
2022-11-13T02:35:38.407Z,99.60
2022-11-13T02:36:40.198Z,99.80
2022-11-13T02:37:42.130Z,99.70
2022-11-13T02:38:44.444Z,99.80
2022-11-13T02:39:46.158Z,99.90
2022-11-13T02:40:47.924Z,99.90
2022-11-13T02:41:49.645Z,99.90
2022-11-13T02:42:51.378Z,99.90
2022-11-13T02:43:53.127Z,99.90
2022-11-13T02:44:54.887Z,99.90
2022-11-13T02:45:56.716Z,99.90
2022-11-13T02:46:58.417Z,99.90
2022-11-13T02:48:01.170Z,99.90
2022-11-13T02:49:03.112Z,99.90
2022-11-13T02:50:06.149Z,99.90
2022-11-13T02:51:07.899Z,99.90
2022-11-13T02:52:09.647Z,99.90
2022-11-13T02:53:11.503Z,99.90
2022-11-13T02:54:16.901Z,99.90
2022-11-13T02:55:19.151Z,99.90
2022-11-13T02:56:21.321Z,99.90
2022-11-13T02:57:23.297Z,99.90
2022-11-13T02:58:25.250Z,99.90
2022-11-13T02:59:27.211Z,99.90
2022-11-13T03:00:28.997Z,99.90
2022-11-13T03:01:30.899Z,99.90
2022-11-13T03:02:32.670Z,99.90
2022-11-13T03:03:56.950Z,99.90
2022-11-13T03:05:13.387Z,99.90
2022-11-13T03:06:15.653Z,99.90
2022-11-13T03:07:17.450Z,99.90
2022-11-13T03:08:19.814Z,99.90
2022-11-13T03:09:21.736Z,99.90
2022-11-13T03:10:23.659Z,99.90
2022-11-13T03:11:25.388Z,99.90
2022-11-13T03:12:27.123Z,99.90
2022-11-13T03:13:28.828Z,99.90
2022-11-13T03:14:30.948Z,99.90
2022-11-13T03:15:34.663Z,99.90
2022-11-13T03:16:36.559Z,99.90
2022-11-13T03:17:38.327Z,99.90
2022-11-13T03:18:40.438Z,99.90
2022-11-13T03:19:42.283Z,99.90
2022-11-13T03:20:44.505Z,99.90
2022-11-13T03:21:46.299Z,99.90
2022-11-13T03:22:48.016Z,99.90
2022-11-13T03:23:49.743Z,99.90
2022-11-13T03:24:51.515Z,99.90
2022-11-13T03:25:53.235Z,99.90
2022-11-13T03:26:54.941Z,99.90
2022-11-13T03:27:56.689Z,99.90
2022-11-13T03:28:58.496Z,99.90
2022-11-13T03:30:00.578Z,99.90
2022-11-13T03:31:02.633Z,99.90
2022-11-13T03:32:04.606Z,99.90
2022-11-13T03:33:06.352Z,99.90
2022-11-13T03:34:08.157Z,99.90
2022-11-13T03:35:09.870Z,99.90
2022-11-13T03:36:11.794Z,99.90
2022-11-13T03:37:13.486Z,99.90
2022-11-13T03:38:15.196Z,99.90
2022-11-13T03:39:16.937Z,99.90
2022-11-13T03:40:18.773Z,99.90
2022-11-13T03:41:21.736Z,99.90
2022-11-13T03:42:23.417Z,99.90
2022-11-13T03:43:25.164Z,99.90
2022-11-13T03:44:26.910Z,99.90
2022-11-13T03:45:28.686Z,99.90
2022-11-13T03:46:30.416Z,99.90
2022-11-13T03:47:32.166Z,99.90
2022-11-13T03:48:33.933Z,99.90
2022-11-13T03:49:35.675Z,99.90
2022-11-13T03:50:41.463Z,99.90
2022-11-13T03:51:46.025Z,99.90
2022-11-13T03:52:47.763Z,99.90
2022-11-13T03:53:49.494Z,99.90
2022-11-13T03:54:51.243Z,99.90
2022-11-13T03:55:53.194Z,99.90
2022-11-13T03:56:54.972Z,99.90
2022-11-13T03:57:56.794Z,99.90
2022-11-13T03:58:58.557Z,99.90
2022-11-13T04:00:00.314Z,99.90
2022-11-13T04:01:02.107Z,99.90
2022-11-13T04:02:03.940Z,99.90
2022-11-13T04:03:05.733Z,99.90
2022-11-13T04:04:07.471Z,99.90
2022-11-13T04:05:09.751Z,99.90
2022-11-13T04:06:11.559Z,99.90
2022-11-13T04:07:13.323Z,99.90
2022-11-13T04:08:15.248Z,99.90
2022-11-13T04:09:17.022Z,99.90
2022-11-13T04:10:19.031Z,99.90
2022-11-13T04:11:20.786Z,99.90
2022-11-13T04:12:22.551Z,99.90
2022-11-13T04:13:24.296Z,99.90
2022-11-13T04:14:26.014Z,99.90
2022-11-13T04:15:27.809Z,99.90
2022-11-13T04:16:29.515Z,99.90
2022-11-13T04:17:31.311Z,99.90
2022-11-13T04:18:33.071Z,99.90
2022-11-13T04:19:34.825Z,99.90
2022-11-13T04:20:36.645Z,99.90
2022-11-13T04:21:38.330Z,99.90
2022-11-13T04:22:40.161Z,99.90
2022-11-13T04:23:41.987Z,99.90
2022-11-13T04:24:43.707Z,99.90
2022-11-13T04:25:45.453Z,99.90
2022-11-13T04:26:47.191Z,99.90
2022-11-13T04:27:53.258Z,99.90
2022-11-13T04:28:55.026Z,99.90
2022-11-13T04:29:56.710Z,99.90
2022-11-13T04:30:58.488Z,99.90
2022-11-13T04:32:00.166Z,99.90
2022-11-13T04:33:01.878Z,99.90
2022-11-13T04:34:03.644Z,99.90
2022-11-13T04:35:05.840Z,99.90
2022-11-13T04:36:08.025Z,99.90
2022-11-13T04:37:09.828Z,99.90
2022-11-13T04:38:12.734Z,99.90
2022-11-13T04:39:14.439Z,99.90
2022-11-13T04:40:16.343Z,99.90
2022-11-13T04:41:36.734Z,99.90
2022-11-13T04:42:50.698Z,99.90
2022-11-13T04:43:52.445Z,99.90
2022-11-13T04:44:54.156Z,99.90
2022-11-13T04:45:55.897Z,99.90
2022-11-13T04:46:57.651Z,99.90
2022-11-13T04:47:59.348Z,99.90
2022-11-13T04:49:01.129Z,99.90
2022-11-13T04:50:03.472Z,99.90
2022-11-13T04:51:05.764Z,99.90
2022-11-13T04:52:07.496Z,99.90
2022-11-13T04:53:09.224Z,99.90
2022-11-13T04:54:11.009Z,99.90
2022-11-13T04:55:13.319Z,99.90
2022-11-13T04:56:15.027Z,99.90
2022-11-13T04:57:16.813Z,99.90
2022-11-13T04:58:18.846Z,99.70
2022-11-13T04:59:20.612Z,99.80
2022-11-13T05:00:22.875Z,99.60
2022-11-13T05:01:24.740Z,99.70
2022-11-13T05:02:26.528Z,99.50
2022-11-13T05:03:28.306Z,99.60
2022-11-13T05:04:30.075Z,99.60
2022-11-13T05:05:31.771Z,99.70
2022-11-13T05:06:33.543Z,99.60
2022-11-13T05:07:35.339Z,99.70
2022-11-13T05:08:37.491Z,99.70
2022-11-13T05:09:39.278Z,99.80
2022-11-13T05:10:41.022Z,99.50
2022-11-13T05:11:42.809Z,99.60
2022-11-13T05:12:44.528Z,99.50
2022-11-13T05:13:46.315Z,99.60
2022-11-13T05:14:48.055Z,99.60
2022-11-13T05:15:49.856Z,99.60
2022-11-13T05:16:51.714Z,99.50
2022-11-13T05:17:54.408Z,99.50
2022-11-13T05:18:58.543Z,99.40
2022-11-13T05:20:00.283Z,99.50
2022-11-13T05:21:02.171Z,99.40
2022-11-13T05:22:05.160Z,99.50
2022-11-13T05:23:06.896Z,99.60
2022-11-13T05:24:11.627Z,99.60
2022-11-13T05:25:13.409Z,99.70
2022-11-13T05:26:15.417Z,99.70
2022-11-13T05:27:17.877Z,99.70
2022-11-13T05:28:19.865Z,99.60
2022-11-13T05:29:21.917Z,99.60
2022-11-13T05:30:23.720Z,99.50
2022-11-13T05:31:26.238Z,99.50
2022-11-13T05:32:28.513Z,99.40
2022-11-13T05:33:30.252Z,99.30
2022-11-13T05:34:31.970Z,99.40
2022-11-13T05:35:33.699Z,99.30
2022-11-13T05:36:35.926Z,99.30
2022-11-13T05:37:37.617Z,99.40
2022-11-13T05:38:40.159Z,99.30
2022-11-13T05:39:41.861Z,99.40
2022-11-13T05:40:43.544Z,99.30
2022-11-13T05:41:45.277Z,99.30
2022-11-13T05:42:46.999Z,99.20
2022-11-13T05:43:50.975Z,99.30
2022-11-13T05:44:54.343Z,99.20
2022-11-13T05:46:05.190Z,99.20
2022-11-13T05:47:06.932Z,99.20
2022-11-13T05:48:08.651Z,99.30
2022-11-13T05:49:10.582Z,99.20
2022-11-13T05:50:12.331Z,99.10
2022-11-13T05:51:15.598Z,99.10
2022-11-13T05:52:17.565Z,99.20
2022-11-13T05:53:19.327Z,99.20
2022-11-13T05:54:21.106Z,99.20
2022-11-13T05:55:23.604Z,99.10
2022-11-13T05:56:28.461Z,99.20
2022-11-13T05:57:30.223Z,99.20
2022-11-13T05:58:33.097Z,99.20
2022-11-13T05:59:34.831Z,99.10
2022-11-13T06:00:36.547Z,99.00
2022-11-13T06:01:40.558Z,99.00
2022-11-13T06:02:42.336Z,99.00
2022-11-13T06:03:45.123Z,99.00
2022-11-13T06:04:50.578Z,99.10
2022-11-13T06:05:53.379Z,99.00
2022-11-13T06:06:55.163Z,99.20
2022-11-13T06:07:56.922Z,99.00
2022-11-13T06:09:01.108Z,99.10
2022-11-13T06:10:02.901Z,99.20
2022-11-13T06:11:07.457Z,99.00
2022-11-13T06:12:09.187Z,99.00
2022-11-13T06:13:10.898Z,98.90
2022-11-13T06:14:12.653Z,98.90
2022-11-13T06:15:14.418Z,98.80
2022-11-13T06:16:18.816Z,98.90
2022-11-13T06:17:20.602Z,99.00
2022-11-13T06:18:26.766Z,99.00
2022-11-13T06:19:28.711Z,99.10
2022-11-13T06:20:30.430Z,99.20
2022-11-13T06:21:34.368Z,99.20
2022-11-13T06:22:36.076Z,99.10
2022-11-13T06:23:39.247Z,99.10
2022-11-13T06:24:40.994Z,99.20
2022-11-13T06:25:43.378Z,99.20
2022-11-13T06:26:45.069Z,99.30
2022-11-13T06:27:46.796Z,99.30
2022-11-13T06:28:48.928Z,99.30
2022-11-13T06:29:50.687Z,99.20
2022-11-13T06:30:52.418Z,99.30
2022-11-13T06:31:54.150Z,99.30
2022-11-13T06:32:55.882Z,99.40
2022-11-13T06:34:00.386Z,99.50
2022-11-13T06:35:02.108Z,99.50
2022-11-13T06:36:10.271Z,99.50
2022-11-13T06:37:11.982Z,99.60
2022-11-13T06:38:14.084Z,99.60
2022-11-13T06:39:15.905Z,99.60
2022-11-13T06:40:17.740Z,99.60
2022-11-13T06:41:22.259Z,99.60
2022-11-13T06:42:24.017Z,99.50
2022-11-13T06:43:26.273Z,99.60
2022-11-13T06:44:28.023Z,99.60
2022-11-13T06:45:30.026Z,99.50
2022-11-13T06:46:31.770Z,99.60
2022-11-13T06:47:33.480Z,99.70
2022-11-13T06:48:35.304Z,99.80
2022-11-13T06:49:37.018Z,99.80
2022-11-13T06:50:38.768Z,99.80
2022-11-13T06:51:40.622Z,99.80
2022-11-13T06:52:42.331Z,99.80
2022-11-13T06:53:44.315Z,99.90
2022-11-13T06:54:46.023Z,99.90
2022-11-13T06:55:49.920Z,99.90
2022-11-13T06:56:51.656Z,99.90
2022-11-13T06:57:54.579Z,99.90
2022-11-13T06:58:56.842Z,99.90
2022-11-13T06:59:58.645Z,99.90
2022-11-13T07:01:20.337Z,99.90
2022-11-13T07:02:22.093Z,99.90
2022-11-13T07:03:26.100Z,99.90
2022-11-13T07:04:27.919Z,99.90
2022-11-13T07:05:29.605Z,99.90
2022-11-13T07:06:33.076Z,99.90
2022-11-13T07:07:38.197Z,99.90
2022-11-13T07:08:44.433Z,99.90
2022-11-13T07:09:46.196Z,99.90
2022-11-13T07:10:55.473Z,99.90
2022-11-13T07:11:57.211Z,99.90
2022-11-13T07:13:00.438Z,99.90
2022-11-13T07:14:02.150Z,99.90
2022-11-13T07:15:04.867Z,99.90
2022-11-13T07:16:16.301Z,99.90
2022-11-13T07:17:18.905Z,99.90
2022-11-13T07:18:25.029Z,99.90
2022-11-13T07:19:26.981Z,99.90
2022-11-13T07:20:29.806Z,99.90
2022-11-13T07:21:31.678Z,99.90
2022-11-13T07:22:33.430Z,99.90
2022-11-13T07:23:37.118Z,99.90
2022-11-13T07:24:38.835Z,99.90
2022-11-13T07:25:40.529Z,99.90
2022-11-13T07:26:42.247Z,99.90
2022-11-13T07:27:46.810Z,99.90
2022-11-13T07:28:49.182Z,99.90
2022-11-13T07:29:50.931Z,99.90
2022-11-13T07:30:52.677Z,99.90
2022-11-13T07:31:54.548Z,99.90
2022-11-13T07:32:56.244Z,99.90
2022-11-13T07:33:58.041Z,99.90
2022-11-13T07:34:59.739Z,99.90
2022-11-13T07:36:01.701Z,99.90
2022-11-13T07:37:06.392Z,99.90
2022-11-13T07:38:08.148Z,99.90
2022-11-13T07:39:09.885Z,99.90
2022-11-13T07:40:12.276Z,99.90
2022-11-13T07:41:14.023Z,99.90
2022-11-13T07:42:15.745Z,99.90
2022-11-13T07:43:17.797Z,99.90
2022-11-13T07:44:40.174Z,99.90
2022-11-13T07:45:41.285Z,99.90
2022-11-13T07:46:43.086Z,99.90
2022-11-13T07:47:44.859Z,99.90
2022-11-13T07:48:46.542Z,99.90
2022-11-13T07:49:48.301Z,99.90
2022-11-13T07:50:50.934Z,99.90
2022-11-13T07:51:52.673Z,99.90
2022-11-13T07:52:59.027Z,99.90
2022-11-13T07:54:00.721Z,99.90
2022-11-13T07:55:02.428Z,99.90
2022-11-13T07:56:05.011Z,99.90
2022-11-13T07:57:06.726Z,99.90
2022-11-13T07:58:09.622Z,99.90
2022-11-13T07:59:11.354Z,99.90
2022-11-13T08:00:13.622Z,99.90
2022-11-13T08:01:15.402Z,99.90
2022-11-13T08:02:17.174Z,99.90
2022-11-13T08:03:18.982Z,99.90
2022-11-13T08:04:20.739Z,99.90
2022-11-13T08:05:23.041Z,99.90
2022-11-13T08:06:27.571Z,99.90
2022-11-13T08:07:29.283Z,99.90
2022-11-13T08:08:32.178Z,99.90
2022-11-13T08:09:34.057Z,99.90
2022-11-13T08:10:36.334Z,99.90
2022-11-13T08:11:38.174Z,99.90
2022-11-13T08:12:39.914Z,99.90
2022-11-13T08:13:44.483Z,99.90
2022-11-13T08:14:50.551Z,99.90
2022-11-13T08:15:52.292Z,99.90
2022-11-13T08:16:54.018Z,99.90
2022-11-13T08:17:57.612Z,99.90
2022-11-13T08:18:59.324Z,99.90
2022-11-13T08:20:01.066Z,99.90
2022-11-13T08:21:04.362Z,99.90
2022-11-13T08:22:06.143Z,99.90
2022-11-13T08:23:07.848Z,99.90
2022-11-13T08:24:10.432Z,99.90
2022-11-13T08:25:12.209Z,99.90
2022-11-13T08:26:15.401Z,99.90
2022-11-13T08:27:17.119Z,99.90
2022-11-13T08:28:18.824Z,99.90
2022-11-13T08:29:20.516Z,99.90
2022-11-13T08:30:23.800Z,99.90
2022-11-13T08:31:26.104Z,99.80
2022-11-13T08:32:28.245Z,99.80
2022-11-13T08:33:30.554Z,99.90
2022-11-13T08:34:32.361Z,99.80
2022-11-13T08:35:34.139Z,99.80
2022-11-13T08:36:36.164Z,99.80
2022-11-13T08:37:37.942Z,99.80
2022-11-13T08:38:39.702Z,99.80
2022-11-13T08:39:41.771Z,99.80
2022-11-13T08:40:44.432Z,99.80
2022-11-13T08:41:46.761Z,99.70
2022-11-13T08:42:48.543Z,99.60
2022-11-13T08:43:50.281Z,99.40
2022-11-13T08:44:52.207Z,99.40
2022-11-13T08:45:54.424Z,99.40
2022-11-13T08:46:56.525Z,99.40
2022-11-13T08:48:02.565Z,99.40
2022-11-13T08:49:05.132Z,99.50
2022-11-13T08:50:08.005Z,99.40
2022-11-13T08:51:10.263Z,99.40
2022-11-13T08:52:12.497Z,99.40
2022-11-13T08:53:14.685Z,99.40
2022-11-13T08:54:17.353Z,99.40
2022-11-13T08:55:19.612Z,99.40
2022-11-13T08:56:21.774Z,99.50
2022-11-13T08:57:24.034Z,99.80
2022-11-13T08:58:26.627Z,99.40
2022-11-13T08:59:29.164Z,99.30
2022-11-13T09:00:33.056Z,99.20
2022-11-13T09:01:35.422Z,99.10
2022-11-13T09:02:37.566Z,99.30
2022-11-13T09:03:39.727Z,99.30
2022-11-13T09:04:42.321Z,99.20
2022-11-13T09:05:44.233Z,99.20
2022-11-13T09:06:46.233Z,99.40
2022-11-13T09:07:48.575Z,99.40
2022-11-13T09:08:50.553Z,99.20
2022-11-13T09:09:52.449Z,99.10
2022-11-13T09:10:54.310Z,99.10
2022-11-13T09:11:56.368Z,99.10
2022-11-13T09:13:04.750Z,99.00
2022-11-13T09:14:06.692Z,98.90
2022-11-13T09:15:08.903Z,99.00
2022-11-13T09:16:10.684Z,99.00
2022-11-13T09:17:12.492Z,99.00
2022-11-13T09:18:14.268Z,99.00
2022-11-13T09:19:16.094Z,98.90
2022-11-13T09:20:22.471Z,98.70
2022-11-13T09:21:25.073Z,98.90
2022-11-13T09:22:26.886Z,98.80
2022-11-13T09:23:29.584Z,98.60
2022-11-13T09:24:31.495Z,98.50
2022-11-13T09:25:37.691Z,98.60
2022-11-13T09:26:39.972Z,98.60
2022-11-13T09:27:41.819Z,98.40
2022-11-13T09:28:43.854Z,98.50
2022-11-13T09:29:45.599Z,98.40
2022-11-13T09:30:47.502Z,98.30
2022-11-13T09:31:50.421Z,98.50
2022-11-13T09:32:57.215Z,98.50
2022-11-13T09:36:16.363Z,98.50
2022-11-13T09:37:18.884Z,98.20
2022-11-13T09:38:21.010Z,98.00
2022-11-13T09:39:23.032Z,97.90
2022-11-13T09:40:31.213Z,98.00
2022-11-13T09:41:44.542Z,97.80
2022-11-13T09:42:46.592Z,97.40
2022-11-13T09:43:59.308Z,97.40
2022-11-13T09:45:13.388Z,97.40
2022-11-13T09:46:30.157Z,97.60
2022-11-13T09:47:36.556Z,97.80
2022-11-13T09:48:47.833Z,97.40
2022-11-13T09:49:59.911Z,97.40
2022-11-13T09:51:10.091Z,97.50
2022-11-13T09:52:17.016Z,97.30
2022-11-13T09:53:18.944Z,97.00
2022-11-13T09:54:21.306Z,97.20
2022-11-13T09:55:31.440Z,97.10
2022-11-13T09:56:39.125Z,97.10
2022-11-13T09:58:06.902Z,97.10
2022-11-13T09:59:24.734Z,97.00
2022-11-13T10:00:28.533Z,96.50
2022-11-13T10:01:48.733Z,96.30
2022-11-13T10:03:54.306Z,96.30
2022-11-13T10:05:10.068Z,95.90
2022-11-13T10:06:23.598Z,95.70
2022-11-13T10:07:42.589Z,95.60
2022-11-13T10:08:53.557Z,95.50
2022-11-13T10:10:21.371Z,95.50
2022-11-13T10:11:25.876Z,95.70
2022-11-13T10:12:31.419Z,95.40
2022-11-13T10:13:47.292Z,95.00
2022-11-13T10:14:53.746Z,95.20
2022-11-13T10:16:04.472Z,94.60
2022-11-13T10:17:19.045Z,94.50
2022-11-13T10:18:26.074Z,94.20
2022-11-13T10:19:37.045Z,94.10
2022-11-13T10:20:46.424Z,94.30
2022-11-13T10:22:07.696Z,94.60
2022-11-13T10:23:22.651Z,94.50
2022-11-13T10:24:33.975Z,94.40
2022-11-13T10:25:37.906Z,94.00
2022-11-13T10:26:39.761Z,93.90
2022-11-13T10:27:41.857Z,93.80
2022-11-13T10:28:50.569Z,93.80
2022-11-13T10:29:53.363Z,93.30
2022-11-13T10:30:55.100Z,93.50
2022-11-13T10:34:08.047Z,94.10
2022-11-13T10:35:36.207Z,93.50
2022-11-13T10:36:59.631Z,93.30
2022-11-13T10:38:30.731Z,93.00
2022-11-13T10:39:42.012Z,92.80
2022-11-13T10:40:43.724Z,93.10
2022-11-13T10:41:51.136Z,92.70
2022-11-13T10:42:52.921Z,92.40
2022-11-13T10:44:17.525Z,92.30
2022-11-13T10:45:21.285Z,92.20
2022-11-13T10:46:25.911Z,92.30
2022-11-13T10:48:01.919Z,92.20
2022-11-13T10:48:53.583Z,92.00
2022-11-13T10:49:56.366Z,91.90
2022-11-13T10:51:25.609Z,91.60
2022-11-13T10:52:28.890Z,92.00
2022-11-13T10:53:48.692Z,91.20
2022-11-13T10:54:51.439Z,90.10
2022-11-13T10:55:56.895Z,90.40
2022-11-13T10:57:04.994Z,90.90
2022-11-13T10:58:16.294Z,90.10
2022-11-13T10:59:19.769Z,89.60
2022-11-13T11:00:30.348Z,90.20
2022-11-13T11:01:32.149Z,90.40
2022-11-13T11:02:35.620Z,89.90
2022-11-13T11:03:37.369Z,90.00
2022-11-13T11:04:39.088Z,90.00
2022-11-13T11:05:52.483Z,89.60
2022-11-13T11:07:19.184Z,89.70
2022-11-13T11:08:18.329Z,89.10
2022-11-13T11:09:27.334Z,89.20
2022-11-13T11:10:36.846Z,88.10
2022-11-13T11:11:57.337Z,88.80
2022-11-13T11:13:23.414Z,88.50
2022-11-13T11:14:38.133Z,89.10
2022-11-13T11:15:50.152Z,89.80
2022-11-13T11:16:53.344Z,89.90
2022-11-13T11:18:01.994Z,90.30
2022-11-13T11:19:10.661Z,89.80
2022-11-13T11:20:41.206Z,90.20
2022-11-13T11:21:44.329Z,90.10
2022-11-13T11:22:49.322Z,90.00
2022-11-13T11:24:05.039Z,89.50
2022-11-13T11:25:17.018Z,89.60
2022-11-13T11:26:24.965Z,89.20
2022-11-13T11:27:46.468Z,89.50
2022-11-13T11:28:51.787Z,90.10
2022-11-13T11:30:05.369Z,90.00
2022-11-13T11:31:20.659Z,90.10
2022-11-13T11:32:52.500Z,88.70
2022-11-13T11:34:08.437Z,89.30
2022-11-13T11:35:28.167Z,90.00
2022-11-13T11:36:48.320Z,90.20
2022-11-13T11:38:27.334Z,90.60
2022-11-13T11:39:37.565Z,90.90
2022-11-13T11:40:46.312Z,90.40
2022-11-13T11:42:14.441Z,90.50
2022-11-13T11:43:29.135Z,91.20
2022-11-13T11:44:49.126Z,91.00
2022-11-13T11:45:50.934Z,90.80
2022-11-13T11:46:52.649Z,91.20
2022-11-13T11:47:54.635Z,91.10
2022-11-13T11:49:01.269Z,91.20
2022-11-13T11:50:05.228Z,91.40
2022-11-13T11:51:29.677Z,91.30
2022-11-13T11:52:53.414Z,91.30
2022-11-13T11:54:14.220Z,91.80
2022-11-13T11:55:15.883Z,91.90
2022-11-13T11:56:23.846Z,91.90
2022-11-13T11:57:44.152Z,91.70
2022-11-13T11:59:03.715Z,92.00
2022-11-13T12:00:15.386Z,91.90
2022-11-13T12:01:41.222Z,91.80
2022-11-13T12:03:15.075Z,91.90
2022-11-13T12:04:55.559Z,92.10
2022-11-13T12:06:02.561Z,92.20
2022-11-13T12:07:12.751Z,92.50
2022-11-13T12:08:51.241Z,92.60
2022-11-13T12:10:20.836Z,92.70
2022-11-13T12:11:34.826Z,92.60
2022-11-13T12:12:42.478Z,92.50
2022-11-13T12:13:52.936Z,92.80
2022-11-13T12:15:35.067Z,92.80
2022-11-13T12:16:50.852Z,93.30
2022-11-13T12:18:25.221Z,92.90
2022-11-13T12:20:08.687Z,92.80
2022-11-13T12:21:27.483Z,93.00
2022-11-13T12:22:46.704Z,93.00
2022-11-13T12:24:11.143Z,93.60
2022-11-13T12:25:23.297Z,93.30
2022-11-13T12:26:35.864Z,93.10
2022-11-13T12:27:45.065Z,93.30
2022-11-13T12:28:46.739Z,93.20
2022-11-13T12:30:19.014Z,93.30
2022-11-13T12:31:40.883Z,93.50
2022-11-13T12:33:04.461Z,93.20
2022-11-13T12:34:15.263Z,93.30
2022-11-13T12:35:21.379Z,93.40
2022-11-13T12:36:24.462Z,92.90
2022-11-13T12:37:45.542Z,92.90
2022-11-13T12:39:27.240Z,93.20
2022-11-13T12:40:35.240Z,93.30
2022-11-13T12:41:43.944Z,93.50
2022-11-13T12:43:20.081Z,93.50
2022-11-13T12:44:29.478Z,93.50
2022-11-13T12:45:36.894Z,93.40
2022-11-13T12:46:41.109Z,93.50
2022-11-13T12:47:43.373Z,93.20
2022-11-13T12:48:46.959Z,93.10
2022-11-13T12:50:02.418Z,93.10
2022-11-13T12:51:13.138Z,93.30
2022-11-13T12:52:24.393Z,93.40
2022-11-13T12:53:43.060Z,93.30
2022-11-13T12:54:45.289Z,93.10
2022-11-13T12:55:59.891Z,93.20
2022-11-13T12:57:16.146Z,93.30
2022-11-13T12:58:25.470Z,93.00
2022-11-13T12:59:39.427Z,93.00
2022-11-13T13:00:51.672Z,93.20
2022-11-13T13:02:09.213Z,93.40
2022-11-13T13:03:38.636Z,93.30
2022-11-13T13:05:04.645Z,93.60
2022-11-13T13:06:18.564Z,93.60
2022-11-13T13:07:32.670Z,93.60
2022-11-13T13:08:34.841Z,93.50
2022-11-13T13:09:51.000Z,93.40
2022-11-13T13:11:16.550Z,93.40
2022-11-13T13:12:36.427Z,93.70
2022-11-13T13:13:46.172Z,93.70
2022-11-13T13:15:05.976Z,93.60
2022-11-13T13:16:08.948Z,93.40
2022-11-13T13:17:19.515Z,93.30
2022-11-13T13:18:21.204Z,93.50
2022-11-13T13:19:31.696Z,93.60
2022-11-13T13:20:37.464Z,93.50
2022-11-13T13:21:44.280Z,93.70
2022-11-13T13:22:56.570Z,93.90
2022-11-13T13:24:07.976Z,93.70
2022-11-13T13:25:25.135Z,93.80
2022-11-13T13:26:30.086Z,93.80
2022-11-13T13:27:39.329Z,93.80
2022-11-13T13:28:48.068Z,93.80
2022-11-13T13:29:49.814Z,94.00
2022-11-13T13:31:08.238Z,93.80
2022-11-13T13:32:28.727Z,94.00
2022-11-13T13:33:42.220Z,94.00
2022-11-13T13:35:05.250Z,93.90
2022-11-13T13:36:17.988Z,93.90
2022-11-13T13:37:50.842Z,93.90
2022-11-13T13:39:18.099Z,94.00
2022-11-13T13:40:55.398Z,94.10
2022-11-13T13:42:32.464Z,94.00
2022-11-13T13:44:11.467Z,94.10
2022-11-13T13:45:45.665Z,94.10
2022-11-13T13:46:47.465Z,94.10
2022-11-13T13:47:52.023Z,94.00
2022-11-13T13:48:57.089Z,93.80
2022-11-13T13:49:59.078Z,93.90
2022-11-13T13:51:02.076Z,93.80
2022-11-13T13:52:05.353Z,93.80
2022-11-13T13:53:09.194Z,93.70
2022-11-13T13:54:18.600Z,93.80
2022-11-13T13:55:32.967Z,93.60
2022-11-13T13:56:41.072Z,93.90
2022-11-13T13:57:43.026Z,93.70
2022-11-13T13:58:45.639Z,93.80
2022-11-13T13:59:47.431Z,93.80
2022-11-13T14:01:20.346Z,93.90
2022-11-13T14:02:24.322Z,94.10
2022-11-13T14:03:28.079Z,94.10
2022-11-13T14:04:34.652Z,93.90
2022-11-13T14:05:36.894Z,94.00
2022-11-13T14:06:54.791Z,94.00
2022-11-13T14:07:57.267Z,94.20
2022-11-13T14:09:10.516Z,94.10
2022-11-13T14:10:17.290Z,94.20
2022-11-13T14:11:29.839Z,94.10
2022-11-13T14:12:31.916Z,94.10
2022-11-13T14:13:33.649Z,94.10
2022-11-13T14:14:38.784Z,94.20